sensor_id;sensor_type;location;lat;lon;timestamp;temperature;humidity
74153;DHT22;62505;46.070;14.492;2023-02-24T00:00:04;22.00;56.60
74153;DHT22;62505;46.070;14.492;2023-02-24T00:02:46;22.00;56.60
74153;DHT22;62505;46.070;14.492;2023-02-24T00:05:13;21.90;56.50
74153;DHT22;62505;46.070;14.492;2023-02-24T00:07:40;21.90;56.50
74153;DHT22;62505;46.070;14.492;2023-02-24T00:10:10;22.00;56.50
74153;DHT22;62505;46.070;14.492;2023-02-24T00:12:43;21.90;56.50
74153;DHT22;62505;46.070;14.492;2023-02-24T00:15:12;21.90;56.50
74153;DHT22;62505;46.070;14.492;2023-02-24T00:17:39;21.90;56.50
74153;DHT22;62505;46.070;14.492;2023-02-24T00:20:10;21.90;56.50
74153;DHT22;62505;46.070;14.492;2023-02-24T00:22:37;21.90;56.50
74153;DHT22;62505;46.070;14.492;2023-02-24T00:25:06;21.90;56.50
74153;DHT22;62505;46.070;14.492;2023-02-24T00:27:33;21.90;56.50
74153;DHT22;62505;46.070;14.492;2023-02-24T00:30:00;21.90;56.50
74153;DHT22;62505;46.070;14.492;2023-02-24T00:32:29;21.90;56.50
74153;DHT22;62505;46.070;14.492;2023-02-24T00:34:56;21.90;56.50
74153;DHT22;62505;46.070;14.492;2023-02-24T00:37:25;21.90;56.50
74153;DHT22;62505;46.070;14.492;2023-02-24T00:39:52;21.90;56.50
74153;DHT22;62505;46.070;14.492;2023-02-24T00:42:23;21.90;56.50
74153;DHT22;62505;46.070;14.492;2023-02-24T00:44:50;21.90;56.50
74153;DHT22;62505;46.070;14.492;2023-02-24T00:47:19;21.90;56.50
74153;DHT22;62505;46.070;14.492;2023-02-24T00:49:47;21.90;56.50
74153;DHT22;62505;46.070;14.492;2023-02-24T00:52:17;21.90;56.50
74153;DHT22;62505;46.070;14.492;2023-02-24T00:54:47;21.90;56.50
74153;DHT22;62505;46.070;14.492;2023-02-24T00:57:15;21.90;56.50
74153;DHT22;62505;46.070;14.492;2023-02-24T00:59:45;21.90;56.50
74153;DHT22;62505;46.070;14.492;2023-02-24T01:02:13;21.90;56.50
74153;DHT22;62505;46.070;14.492;2023-02-24T01:04:41;21.90;56.50
74153;DHT22;62505;46.070;14.492;2023-02-24T01:07:10;21.90;56.50
74153;DHT22;62505;46.070;14.492;2023-02-24T01:09:39;21.90;56.50
74153;DHT22;62505;46.070;14.492;2023-02-24T01:12:10;21.90;57.20
74153;DHT22;62505;46.070;14.492;2023-02-24T01:14:54;21.90;56.50
74153;DHT22;62505;46.070;14.492;2023-02-24T01:17:22;21.90;56.50
74153;DHT22;62505;46.070;14.492;2023-02-24T01:19:50;21.90;56.50
74153;DHT22;62505;46.070;14.492;2023-02-24T01:22:18;21.90;56.50
74153;DHT22;62505;46.070;14.492;2023-02-24T01:24:46;21.90;56.50
74153;DHT22;62505;46.070;14.492;2023-02-24T01:27:16;21.90;56.50
74153;DHT22;62505;46.070;14.492;2023-02-24T01:29:44;21.80;56.50
74153;DHT22;62505;46.070;14.492;2023-02-24T01:32:13;21.90;56.50
74153;DHT22;62505;46.070;14.492;2023-02-24T01:34:43;21.80;56.50
74153;DHT22;62505;46.070;14.492;2023-02-24T01:37:10;21.80;56.50
74153;DHT22;62505;46.070;14.492;2023-02-24T01:39:41;21.80;56.40
74153;DHT22;62505;46.070;14.492;2023-02-24T01:42:12;21.80;56.50
74153;DHT22;62505;46.070;14.492;2023-02-24T01:45:10;21.80;56.40
74153;DHT22;62505;46.070;14.492;2023-02-24T01:47:38;21.80;56.50
74153;DHT22;62505;46.070;14.492;2023-02-24T01:50:07;21.80;56.50
74153;DHT22;62505;46.070;14.492;2023-02-24T01:52:39;21.80;56.50
74153;DHT22;62505;46.070;14.492;2023-02-24T01:55:13;21.80;56.50
74153;DHT22;62505;46.070;14.492;2023-02-24T01:57:41;21.80;56.40
74153;DHT22;62505;46.070;14.492;2023-02-24T02:00:14;21.80;56.40
74153;DHT22;62505;46.070;14.492;2023-02-24T02:02:59;21.70;56.40
74153;DHT22;62505;46.070;14.492;2023-02-24T02:05:28;21.80;56.40
74153;DHT22;62505;46.070;14.492;2023-02-24T02:07:55;21.80;56.40
74153;DHT22;62505;46.070;14.492;2023-02-24T02:10:23;21.80;56.40
74153;DHT22;62505;46.070;14.492;2023-02-24T02:12:53;21.80;56.40
74153;DHT22;62505;46.070;14.492;2023-02-24T02:15:22;21.80;56.40
74153;DHT22;62505;46.070;14.492;2023-02-24T02:17:55;21.80;56.40
74153;DHT22;62505;46.070;14.492;2023-02-24T02:20:55;21.80;56.40
74153;DHT22;62505;46.070;14.492;2023-02-24T02:23:53;21.80;56.40
74153;DHT22;62505;46.070;14.492;2023-02-24T02:26:42;21.80;56.40
74153;DHT22;62505;46.070;14.492;2023-02-24T02:29:33;21.80;56.40
74153;DHT22;62505;46.070;14.492;2023-02-24T02:32:29;21.80;56.40
74153;DHT22;62505;46.070;14.492;2023-02-24T02:35:07;21.80;56.40
74153;DHT22;62505;46.070;14.492;2023-02-24T02:37:43;21.80;56.40
74153;DHT22;62505;46.070;14.492;2023-02-24T02:40:20;21.80;56.40
74153;DHT22;62505;46.070;14.492;2023-02-24T02:42:55;21.80;56.40
74153;DHT22;62505;46.070;14.492;2023-02-24T02:45:27;21.70;56.40
74153;DHT22;62505;46.070;14.492;2023-02-24T02:48:00;21.80;56.40
74153;DHT22;62505;46.070;14.492;2023-02-24T02:50:35;21.80;56.40
74153;DHT22;62505;46.070;14.492;2023-02-24T02:53:09;21.80;56.40
74153;DHT22;62505;46.070;14.492;2023-02-24T02:55:40;21.80;56.40
74153;DHT22;62505;46.070;14.492;2023-02-24T02:58:14;21.80;57.00
74153;DHT22;62505;46.070;14.492;2023-02-24T03:00:44;21.80;56.40
74153;DHT22;62505;46.070;14.492;2023-02-24T03:03:23;21.80;56.40
74153;DHT22;62505;46.070;14.492;2023-02-24T03:05:58;21.80;56.40
74153;DHT22;62505;46.070;14.492;2023-02-24T03:08:28;21.70;56.40
74153;DHT22;62505;46.070;14.492;2023-02-24T03:11:00;21.80;56.40
74153;DHT22;62505;46.070;14.492;2023-02-24T03:13:33;21.70;56.40
74153;DHT22;62505;46.070;14.492;2023-02-24T03:16:04;21.70;56.40
74153;DHT22;62505;46.070;14.492;2023-02-24T03:18:36;21.70;56.30
74153;DHT22;62505;46.070;14.492;2023-02-24T03:21:07;21.80;56.40
74153;DHT22;62505;46.070;14.492;2023-02-24T03:23:41;21.70;56.40
74153;DHT22;62505;46.070;14.492;2023-02-24T03:26:12;21.70;56.40
74153;DHT22;62505;46.070;14.492;2023-02-24T03:28:51;21.70;56.30
74153;DHT22;62505;46.070;14.492;2023-02-24T03:31:23;21.70;57.00
74153;DHT22;62505;46.070;14.492;2023-02-24T03:33:58;21.70;56.40
74153;DHT22;62505;46.070;14.492;2023-02-24T03:36:29;21.70;56.30
74153;DHT22;62505;46.070;14.492;2023-02-24T03:38:57;21.70;56.40
74153;DHT22;62505;46.070;14.492;2023-02-24T03:41:27;21.70;56.40
74153;DHT22;62505;46.070;14.492;2023-02-24T03:43:58;21.70;56.40
74153;DHT22;62505;46.070;14.492;2023-02-24T03:46:26;21.70;56.40
74153;DHT22;62505;46.070;14.492;2023-02-24T03:48:58;21.70;56.30
74153;DHT22;62505;46.070;14.492;2023-02-24T03:51:29;21.70;57.00
74153;DHT22;62505;46.070;14.492;2023-02-24T03:54:05;21.70;56.30
74153;DHT22;62505;46.070;14.492;2023-02-24T03:56:45;21.70;56.30
74153;DHT22;62505;46.070;14.492;2023-02-24T03:59:23;21.70;56.30
74153;DHT22;62505;46.070;14.492;2023-02-24T04:01:56;21.70;56.30
74153;DHT22;62505;46.070;14.492;2023-02-24T04:04:30;21.70;56.30
74153;DHT22;62505;46.070;14.492;2023-02-24T04:07:02;21.70;56.30
74153;DHT22;62505;46.070;14.492;2023-02-24T04:09:39;21.70;56.30
74153;DHT22;62505;46.070;14.492;2023-02-24T04:12:13;21.70;56.30
74153;DHT22;62505;46.070;14.492;2023-02-24T04:14:48;21.70;56.30
74153;DHT22;62505;46.070;14.492;2023-02-24T04:17:19;21.70;56.30
74153;DHT22;62505;46.070;14.492;2023-02-24T04:19:57;21.70;56.30
74153;DHT22;62505;46.070;14.492;2023-02-24T04:22:28;21.70;56.30
74153;DHT22;62505;46.070;14.492;2023-02-24T04:24:58;21.70;56.30
74153;DHT22;62505;46.070;14.492;2023-02-24T04:27:27;21.70;56.30
74153;DHT22;62505;46.070;14.492;2023-02-24T04:29:56;21.70;56.40
74153;DHT22;62505;46.070;14.492;2023-02-24T04:32:28;21.70;56.30
74153;DHT22;62505;46.070;14.492;2023-02-24T04:35:01;21.70;56.30
74153;DHT22;62505;46.070;14.492;2023-02-24T04:37:30;21.70;56.30
74153;DHT22;62505;46.070;14.492;2023-02-24T04:39:58;21.70;56.30
74153;DHT22;62505;46.070;14.492;2023-02-24T04:42:26;21.70;56.30
74153;DHT22;62505;46.070;14.492;2023-02-24T04:44:53;21.70;56.40
74153;DHT22;62505;46.070;14.492;2023-02-24T04:47:23;21.70;56.40
74153;DHT22;62505;46.070;14.492;2023-02-24T04:49:53;21.70;56.30
74153;DHT22;62505;46.070;14.492;2023-02-24T04:52:21;21.70;56.40
74153;DHT22;62505;46.070;14.492;2023-02-24T04:54:50;21.70;56.30
74153;DHT22;62505;46.070;14.492;2023-02-24T04:57:17;21.70;56.30
74153;DHT22;62505;46.070;14.492;2023-02-24T04:59:44;21.70;56.90
74153;DHT22;62505;46.070;14.492;2023-02-24T05:02:11;21.70;56.30
74153;DHT22;62505;46.070;14.492;2023-02-24T05:04:40;21.70;56.30
74153;DHT22;62505;46.070;14.492;2023-02-24T05:07:07;21.70;56.90
74153;DHT22;62505;46.070;14.492;2023-02-24T05:09:37;21.70;57.00
74153;DHT22;62505;46.070;14.492;2023-02-24T05:12:07;21.70;56.80
74153;DHT22;62505;46.070;14.492;2023-02-24T05:14:34;21.70;56.60
74153;DHT22;62505;46.070;14.492;2023-02-24T05:17:04;21.70;56.60
74153;DHT22;62505;46.070;14.492;2023-02-24T05:19:31;21.70;56.80
74153;DHT22;62505;46.070;14.492;2023-02-24T05:22:15;21.70;56.80
74153;DHT22;62505;46.070;14.492;2023-02-24T05:24:42;21.70;56.80
74153;DHT22;62505;46.070;14.492;2023-02-24T05:27:13;21.70;56.60
74153;DHT22;62505;46.070;14.492;2023-02-24T05:29:42;21.70;56.60
74153;DHT22;62505;46.070;14.492;2023-02-24T05:32:10;21.70;56.60
74153;DHT22;62505;46.070;14.492;2023-02-24T05:34:37;21.70;56.60
74153;DHT22;62505;46.070;14.492;2023-02-24T05:37:04;21.70;56.60
74153;DHT22;62505;46.070;14.492;2023-02-24T05:39:35;21.70;56.60
74153;DHT22;62505;46.070;14.492;2023-02-24T05:42:02;21.70;56.50
74153;DHT22;62505;46.070;14.492;2023-02-24T05:44:33;21.70;57.40
74153;DHT22;62505;46.070;14.492;2023-02-24T05:47:01;21.80;59.00
74153;DHT22;62505;46.070;14.492;2023-02-24T05:49:32;21.80;58.30
74153;DHT22;62505;46.070;14.492;2023-02-24T05:52:01;21.90;58.50
74153;DHT22;62505;46.070;14.492;2023-02-24T05:54:35;21.90;58.30
74153;DHT22;62505;46.070;14.492;2023-02-24T05:57:05;22.00;58.10
74153;DHT22;62505;46.070;14.492;2023-02-24T05:59:34;22.00;58.00
74153;DHT22;62505;46.070;14.492;2023-02-24T06:02:04;22.00;58.00
74153;DHT22;62505;46.070;14.492;2023-02-24T06:04:32;22.00;57.80
74153;DHT22;62505;46.070;14.492;2023-02-24T06:07:07;21.90;57.40
74153;DHT22;62505;46.070;14.492;2023-02-24T06:09:38;21.90;57.10
74153;DHT22;62505;46.070;14.492;2023-02-24T06:12:09;21.90;58.00
74153;DHT22;62505;46.070;14.492;2023-02-24T06:14:40;21.80;57.40
74153;DHT22;62505;46.070;14.492;2023-02-24T06:17:07;21.80;57.50
74153;DHT22;62505;46.070;14.492;2023-02-24T06:19:35;21.80;57.50
74153;DHT22;62505;46.070;14.492;2023-02-24T06:22:02;21.80;57.60
74153;DHT22;62505;46.070;14.492;2023-02-24T06:24:32;21.80;57.60
74153;DHT22;62505;46.070;14.492;2023-02-24T06:26:59;21.80;57.60
74153;DHT22;62505;46.070;14.492;2023-02-24T06:29:34;21.80;57.60
74153;DHT22;62505;46.070;14.492;2023-02-24T06:32:04;21.80;57.60
74153;DHT22;62505;46.070;14.492;2023-02-24T06:34:33;21.80;57.50
74153;DHT22;62505;46.070;14.492;2023-02-24T06:37:00;21.80;57.50
74153;DHT22;62505;46.070;14.492;2023-02-24T06:39:28;21.70;57.40
74153;DHT22;62505;46.070;14.492;2023-02-24T06:41:55;21.70;57.40
74153;DHT22;62505;46.070;14.492;2023-02-24T06:44:28;21.70;57.40
74153;DHT22;62505;46.070;14.492;2023-02-24T06:46:55;21.70;57.40
74153;DHT22;62505;46.070;14.492;2023-02-24T06:49:24;21.70;57.40
74153;DHT22;62505;46.070;14.492;2023-02-24T06:51:52;21.70;57.30
74153;DHT22;62505;46.070;14.492;2023-02-24T06:54:20;21.70;57.40
74153;DHT22;62505;46.070;14.492;2023-02-24T06:56:48;21.70;57.30
74153;DHT22;62505;46.070;14.492;2023-02-24T06:59:15;21.70;57.30
74153;DHT22;62505;46.070;14.492;2023-02-24T07:01:47;21.70;57.30
74153;DHT22;62505;46.070;14.492;2023-02-24T07:04:15;21.70;57.30
74153;DHT22;62505;46.070;14.492;2023-02-24T07:06:49;21.70;57.30
74153;DHT22;62505;46.070;14.492;2023-02-24T07:09:18;21.70;57.30
74153;DHT22;62505;46.070;14.492;2023-02-24T07:11:47;21.70;57.30
74153;DHT22;62505;46.070;14.492;2023-02-24T07:14:17;21.70;57.80
74153;DHT22;62505;46.070;14.492;2023-02-24T07:16:45;21.70;57.20
74153;DHT22;62505;46.070;14.492;2023-02-24T07:19:14;21.70;57.10
74153;DHT22;62505;46.070;14.492;2023-02-24T07:21:43;21.70;57.20
74153;DHT22;62505;46.070;14.492;2023-02-24T07:24:20;21.70;57.10
74153;DHT22;62505;46.070;14.492;2023-02-24T07:26:55;21.70;57.10
74153;DHT22;62505;46.070;14.492;2023-02-24T07:29:23;21.70;57.10
74153;DHT22;62505;46.070;14.492;2023-02-24T07:31:51;21.70;57.10
74153;DHT22;62505;46.070;14.492;2023-02-24T07:34:22;21.70;57.10
74153;DHT22;62505;46.070;14.492;2023-02-24T07:36:50;21.70;57.30
74153;DHT22;62505;46.070;14.492;2023-02-24T07:39:20;21.70;57.20
74153;DHT22;62505;46.070;14.492;2023-02-24T07:41:48;21.70;57.10
74153;DHT22;62505;46.070;14.492;2023-02-24T07:44:18;21.70;57.10
74153;DHT22;62505;46.070;14.492;2023-02-24T07:46:45;21.70;57.10
74153;DHT22;62505;46.070;14.492;2023-02-24T07:49:16;21.70;57.10
74153;DHT22;62505;46.070;14.492;2023-02-24T07:51:44;21.70;57.10
74153;DHT22;62505;46.070;14.492;2023-02-24T07:54:11;21.70;57.10
74153;DHT22;62505;46.070;14.492;2023-02-24T07:56:41;21.70;57.10
74153;DHT22;62505;46.070;14.492;2023-02-24T07:59:13;21.70;57.10
74153;DHT22;62505;46.070;14.492;2023-02-24T08:01:44;21.70;57.00
74153;DHT22;62505;46.070;14.492;2023-02-24T08:04:17;21.70;57.00
74153;DHT22;62505;46.070;14.492;2023-02-24T08:06:46;21.70;57.00
74153;DHT22;62505;46.070;14.492;2023-02-24T08:09:21;21.70;56.90
74153;DHT22;62505;46.070;14.492;2023-02-24T08:12:12;21.70;57.00
74153;DHT22;62505;46.070;14.492;2023-02-24T08:14:42;21.70;56.90
74153;DHT22;62505;46.070;14.492;2023-02-24T08:17:15;21.70;56.90
74153;DHT22;62505;46.070;14.492;2023-02-24T08:19:45;21.70;56.80
74153;DHT22;62505;46.070;14.492;2023-02-24T08:22:13;21.70;56.80
74153;DHT22;62505;46.070;14.492;2023-02-24T08:24:51;21.70;56.80
74153;DHT22;62505;46.070;14.492;2023-02-24T08:27:21;21.60;56.80
74153;DHT22;62505;46.070;14.492;2023-02-24T08:29:50;21.60;56.70
74153;DHT22;62505;46.070;14.492;2023-02-24T08:32:25;21.60;56.70
74153;DHT22;62505;46.070;14.492;2023-02-24T08:34:58;21.60;56.70
74153;DHT22;62505;46.070;14.492;2023-02-24T08:37:28;21.60;56.70
74153;DHT22;62505;46.070;14.492;2023-02-24T08:40:06;21.60;56.70
74153;DHT22;62505;46.070;14.492;2023-02-24T08:42:43;21.60;56.70
74153;DHT22;62505;46.070;14.492;2023-02-24T08:45:11;21.60;56.70
74153;DHT22;62505;46.070;14.492;2023-02-24T08:47:39;21.60;56.70
74153;DHT22;62505;46.070;14.492;2023-02-24T08:50:09;21.60;56.70
74153;DHT22;62505;46.070;14.492;2023-02-24T08:52:36;21.60;56.70
74153;DHT22;62505;46.070;14.492;2023-02-24T08:55:05;21.60;56.60
74153;DHT22;62505;46.070;14.492;2023-02-24T08:57:35;21.60;56.60
74153;DHT22;62505;46.070;14.492;2023-02-24T09:00:04;21.60;56.60
74153;DHT22;62505;46.070;14.492;2023-02-24T09:02:31;21.60;56.60
74153;DHT22;62505;46.070;14.492;2023-02-24T09:05:06;21.60;56.60
74153;DHT22;62505;46.070;14.492;2023-02-24T09:07:36;21.60;56.60
74153;DHT22;62505;46.070;14.492;2023-02-24T09:10:08;21.60;56.50
74153;DHT22;62505;46.070;14.492;2023-02-24T09:12:37;21.60;56.50
74153;DHT22;62505;46.070;14.492;2023-02-24T09:15:09;21.60;56.50
74153;DHT22;62505;46.070;14.492;2023-02-24T09:17:42;21.60;56.50
74153;DHT22;62505;46.070;14.492;2023-02-24T09:20:31;21.60;56.50
74153;DHT22;62505;46.070;14.492;2023-02-24T09:23:16;21.60;56.50
74153;DHT22;62505;46.070;14.492;2023-02-24T09:25:46;21.60;56.50
74153;DHT22;62505;46.070;14.492;2023-02-24T09:28:16;21.60;56.50
74153;DHT22;62505;46.070;14.492;2023-02-24T09:30:47;21.60;56.40
74153;DHT22;62505;46.070;14.492;2023-02-24T09:33:21;21.60;56.40
74153;DHT22;62505;46.070;14.492;2023-02-24T09:35:52;21.60;56.40
74153;DHT22;62505;46.070;14.492;2023-02-24T09:38:28;21.60;56.40
74153;DHT22;62505;46.070;14.492;2023-02-24T09:41:22;21.60;56.40
74153;DHT22;62505;46.070;14.492;2023-02-24T09:44:00;21.60;56.40
74153;DHT22;62505;46.070;14.492;2023-02-24T09:46:37;21.60;56.40
74153;DHT22;62505;46.070;14.492;2023-02-24T09:49:13;21.60;56.40
74153;DHT22;62505;46.070;14.492;2023-02-24T09:51:42;21.60;56.40
74153;DHT22;62505;46.070;14.492;2023-02-24T09:54:19;21.60;56.40
74153;DHT22;62505;46.070;14.492;2023-02-24T09:56:55;21.60;56.40
74153;DHT22;62505;46.070;14.492;2023-02-24T09:59:44;21.60;56.40
74153;DHT22;62505;46.070;14.492;2023-02-24T10:02:36;21.60;56.40
74153;DHT22;62505;46.070;14.492;2023-02-24T10:05:17;21.60;56.40
74153;DHT22;62505;46.070;14.492;2023-02-24T10:07:47;21.60;56.40
74153;DHT22;62505;46.070;14.492;2023-02-24T10:10:19;21.60;56.40
74153;DHT22;62505;46.070;14.492;2023-02-24T10:12:57;21.60;56.40
74153;DHT22;62505;46.070;14.492;2023-02-24T10:15:29;21.60;56.40
74153;DHT22;62505;46.070;14.492;2023-02-24T10:18:29;21.60;56.40
74153;DHT22;62505;46.070;14.492;2023-02-24T10:21:02;21.60;56.40
74153;DHT22;62505;46.070;14.492;2023-02-24T10:23:38;21.60;56.40
74153;DHT22;62505;46.070;14.492;2023-02-24T10:26:12;21.50;56.30
74153;DHT22;62505;46.070;14.492;2023-02-24T10:29:01;21.60;56.40
74153;DHT22;62505;46.070;14.492;2023-02-24T10:31:40;21.60;56.40
74153;DHT22;62505;46.070;14.492;2023-02-24T10:34:13;21.60;56.30
74153;DHT22;62505;46.070;14.492;2023-02-24T10:36:51;21.60;56.40
74153;DHT22;62505;46.070;14.492;2023-02-24T10:39:19;21.60;56.30
74153;DHT22;62505;46.070;14.492;2023-02-24T10:41:51;21.50;56.30
74153;DHT22;62505;46.070;14.492;2023-02-24T10:44:23;21.60;56.30
74153;DHT22;62505;46.070;14.492;2023-02-24T10:47:01;21.60;56.30
74153;DHT22;62505;46.070;14.492;2023-02-24T10:49:42;21.60;56.30
74153;DHT22;62505;46.070;14.492;2023-02-24T10:52:23;21.60;56.30
74153;DHT22;62505;46.070;14.492;2023-02-24T10:55:22;21.50;56.20
74153;DHT22;62505;46.070;14.492;2023-02-24T10:58:20;21.50;56.30
74153;DHT22;62505;46.070;14.492;2023-02-24T11:01:07;21.50;56.30
74153;DHT22;62505;46.070;14.492;2023-02-24T11:03:48;21.50;56.30
74153;DHT22;62505;46.070;14.492;2023-02-24T11:06:29;21.50;56.40
74153;DHT22;62505;46.070;14.492;2023-02-24T11:09:19;21.50;56.30
74153;DHT22;62505;46.070;14.492;2023-02-24T11:12:04;21.50;56.30
74153;DHT22;62505;46.070;14.492;2023-02-24T11:14:51;21.50;56.30
74153;DHT22;62505;46.070;14.492;2023-02-24T11:17:44;21.50;56.30
74153;DHT22;62505;46.070;14.492;2023-02-24T11:20:26;21.50;56.30
74153;DHT22;62505;46.070;14.492;2023-02-24T11:22:55;21.50;56.30
74153;DHT22;62505;46.070;14.492;2023-02-24T11:25:25;21.50;56.30
74153;DHT22;62505;46.070;14.492;2023-02-24T11:27:54;21.50;56.30
74153;DHT22;62505;46.070;14.492;2023-02-24T11:30:29;21.50;56.30
74153;DHT22;62505;46.070;14.492;2023-02-24T11:33:14;21.50;56.30
74153;DHT22;62505;46.070;14.492;2023-02-24T11:35:51;21.50;56.30
74153;DHT22;62505;46.070;14.492;2023-02-24T11:38:34;21.50;56.30
74153;DHT22;62505;46.070;14.492;2023-02-24T11:41:08;21.50;56.30
74153;DHT22;62505;46.070;14.492;2023-02-24T11:43:41;21.50;56.40
74153;DHT22;62505;46.070;14.492;2023-02-24T11:46:13;21.50;56.40
74153;DHT22;62505;46.070;14.492;2023-02-24T11:48:44;21.50;56.40
74153;DHT22;62505;46.070;14.492;2023-02-24T11:51:16;21.50;56.60
74153;DHT22;62505;46.070;14.492;2023-02-24T11:53:50;21.60;56.60
74153;DHT22;62505;46.070;14.492;2023-02-24T11:56:22;21.60;56.50
74153;DHT22;62505;46.070;14.492;2023-02-24T11:58:56;21.60;56.50
74153;DHT22;62505;46.070;14.492;2023-02-24T12:01:28;21.60;56.60
74153;DHT22;62505;46.070;14.492;2023-02-24T12:04:04;21.60;56.60
74153;DHT22;62505;46.070;14.492;2023-02-24T12:06:36;21.60;56.70
74153;DHT22;62505;46.070;14.492;2023-02-24T12:09:10;21.60;56.50
74153;DHT22;62505;46.070;14.492;2023-02-24T12:11:44;21.60;56.60
74153;DHT22;62505;46.070;14.492;2023-02-24T12:14:30;21.60;57.30
74153;DHT22;62505;46.070;14.492;2023-02-24T12:17:03;21.60;56.70
74153;DHT22;62505;46.070;14.492;2023-02-24T12:19:43;21.60;56.80
74153;DHT22;62505;46.070;14.492;2023-02-24T12:22:16;21.70;56.80
74153;DHT22;62505;46.070;14.492;2023-02-24T12:24:47;21.70;56.80
74153;DHT22;62505;46.070;14.492;2023-02-24T12:27:26;21.70;56.90
74153;DHT22;62505;46.070;14.492;2023-02-24T12:30:18;21.70;56.80
74153;DHT22;62505;46.070;14.492;2023-02-24T12:33:07;21.70;56.80
74153;DHT22;62505;46.070;14.492;2023-02-24T12:35:43;21.70;56.90
74153;DHT22;62505;46.070;14.492;2023-02-24T12:38:35;21.70;56.90
74153;DHT22;62505;46.070;14.492;2023-02-24T12:41:18;21.70;56.80
74153;DHT22;62505;46.070;14.492;2023-02-24T12:43:53;21.70;56.80
74153;DHT22;62505;46.070;14.492;2023-02-24T12:46:30;21.70;57.10
74153;DHT22;62505;46.070;14.492;2023-02-24T12:49:16;21.70;56.90
74153;DHT22;62505;46.070;14.492;2023-02-24T12:52:03;21.70;57.60
74153;DHT22;62505;46.070;14.492;2023-02-24T12:54:36;21.70;57.80
74153;DHT22;62505;46.070;14.492;2023-02-24T12:57:12;21.80;57.80
74153;DHT22;62505;46.070;14.492;2023-02-24T12:59:41;21.80;57.60
74153;DHT22;62505;46.070;14.492;2023-02-24T13:02:15;21.80;57.90
74153;DHT22;62505;46.070;14.492;2023-02-24T13:04:53;21.70;57.40
74153;DHT22;62505;46.070;14.492;2023-02-24T13:07:46;21.80;57.90
74153;DHT22;62505;46.070;14.492;2023-02-24T13:10:27;21.80;57.70
74153;DHT22;62505;46.070;14.492;2023-02-24T13:13:05;21.80;58.00
74153;DHT22;62505;46.070;14.492;2023-02-24T13:15:34;21.90;58.10
74153;DHT22;62505;46.070;14.492;2023-02-24T13:18:01;21.90;58.00
74153;DHT22;62505;46.070;14.492;2023-02-24T13:20:31;21.90;56.80
74153;DHT22;62505;46.070;14.492;2023-02-24T13:22:58;21.80;57.60
74153;DHT22;62505;46.070;14.492;2023-02-24T13:25:30;21.90;57.90
74153;DHT22;62505;46.070;14.492;2023-02-24T13:28:02;21.90;57.90
74153;DHT22;62505;46.070;14.492;2023-02-24T13:30:35;21.80;58.00
74153;DHT22;62505;46.070;14.492;2023-02-24T13:33:21;21.80;58.20
74153;DHT22;62505;46.070;14.492;2023-02-24T13:36:04;21.90;58.40
74153;DHT22;62505;46.070;14.492;2023-02-24T13:38:35;21.90;58.40
74153;DHT22;62505;46.070;14.492;2023-02-24T13:44:24;21.90;58.20
74153;DHT22;62505;46.070;14.492;2023-02-24T13:47:05;21.90;58.90
74153;DHT22;62505;46.070;14.492;2023-02-24T13:49:42;21.90;58.60
74153;DHT22;62505;46.070;14.492;2023-02-24T13:52:19;21.90;58.60
74153;DHT22;62505;46.070;14.492;2023-02-24T13:55:26;21.90;58.80
74153;DHT22;62505;46.070;14.492;2023-02-24T14:01:03;21.90;58.80
74153;DHT22;62505;46.070;14.492;2023-02-24T14:03:31;21.90;59.00
74153;DHT22;62505;46.070;14.492;2023-02-24T14:06:00;21.90;59.00
74153;DHT22;62505;46.070;14.492;2023-02-24T14:08:38;21.90;58.90
74153;DHT22;62505;46.070;14.492;2023-02-24T14:11:10;21.90;59.00
74153;DHT22;62505;46.070;14.492;2023-02-24T14:13:38;22.00;58.90
74153;DHT22;62505;46.070;14.492;2023-02-24T14:16:08;21.90;57.90
74153;DHT22;62505;46.070;14.492;2023-02-24T14:18:36;21.90;58.10
74153;DHT22;62505;46.070;14.492;2023-02-24T14:21:03;21.90;58.60
74153;DHT22;62505;46.070;14.492;2023-02-24T14:23:32;21.90;58.30
74153;DHT22;62505;46.070;14.492;2023-02-24T14:26:00;21.90;58.30
74153;DHT22;62505;46.070;14.492;2023-02-24T14:28:29;21.90;59.20
74153;DHT22;62505;46.070;14.492;2023-02-24T14:30:58;21.90;59.10
74153;DHT22;62505;46.070;14.492;2023-02-24T14:33:31;21.90;58.80
74153;DHT22;62505;46.070;14.492;2023-02-24T14:35:59;21.90;58.90
74153;DHT22;62505;46.070;14.492;2023-02-24T14:38:32;21.90;59.60
74153;DHT22;62505;46.070;14.492;2023-02-24T14:41:00;21.90;58.80
74153;DHT22;62505;46.070;14.492;2023-02-24T14:43:27;21.90;58.10
74153;DHT22;62505;46.070;14.492;2023-02-24T14:45:54;21.80;57.60
74153;DHT22;62505;46.070;14.492;2023-02-24T14:48:24;21.80;57.70
74153;DHT22;62505;46.070;14.492;2023-02-24T14:50:56;21.90;57.70
74153;DHT22;62505;46.070;14.492;2023-02-24T14:53:26;21.80;57.80
74153;DHT22;62505;46.070;14.492;2023-02-24T14:55:56;21.80;57.70
74153;DHT22;62505;46.070;14.492;2023-02-24T14:58:29;21.80;57.70
74153;DHT22;62505;46.070;14.492;2023-02-24T15:01:00;21.80;57.70
74153;DHT22;62505;46.070;14.492;2023-02-24T15:03:30;21.80;57.60
74153;DHT22;62505;46.070;14.492;2023-02-24T15:06:04;21.80;57.60
74153;DHT22;62505;46.070;14.492;2023-02-24T15:08:34;21.80;57.50
74153;DHT22;62505;46.070;14.492;2023-02-24T15:11:08;21.80;57.50
74153;DHT22;62505;46.070;14.492;2023-02-24T15:13:38;21.80;57.40
74153;DHT22;62505;46.070;14.492;2023-02-24T15:16:11;21.80;57.40
74153;DHT22;62505;46.070;14.492;2023-02-24T15:18:39;21.80;57.30
74153;DHT22;62505;46.070;14.492;2023-02-24T15:21:20;21.80;57.40
74153;DHT22;62505;46.070;14.492;2023-02-24T15:23:47;21.80;57.30
74153;DHT22;62505;46.070;14.492;2023-02-24T15:26:25;21.80;57.30
74153;DHT22;62505;46.070;14.492;2023-02-24T15:28:57;21.80;57.20
74153;DHT22;62505;46.070;14.492;2023-02-24T15:31:25;21.80;57.20
74153;DHT22;62505;46.070;14.492;2023-02-24T15:33:55;21.80;57.10
74153;DHT22;62505;46.070;14.492;2023-02-24T15:36:29;21.80;57.10
74153;DHT22;62505;46.070;14.492;2023-02-24T15:38:59;21.80;57.10
74153;DHT22;62505;46.070;14.492;2023-02-24T15:41:38;21.80;57.10
74153;DHT22;62505;46.070;14.492;2023-02-24T15:44:05;21.80;57.10
74153;DHT22;62505;46.070;14.492;2023-02-24T15:46:34;21.80;57.10
74153;DHT22;62505;46.070;14.492;2023-02-24T15:49:04;21.80;57.10
74153;DHT22;62505;46.070;14.492;2023-02-24T15:51:36;21.80;57.10
74153;DHT22;62505;46.070;14.492;2023-02-24T15:54:06;21.80;57.10
74153;DHT22;62505;46.070;14.492;2023-02-24T15:56:34;21.80;57.70